Time;durP1;ratioP1;P1;durP2;ratioP2;P2;SDS_P1;SDS_P2;PMS_P1;PMS_P2;Temp;Humidity;BMP_temperature;BMP_pressure;BME280_temperature;BME280_humidity;BME280_pressure;Samples;Min_cycle;Max_cycle;Signal;HPM_P1;HPM_P2
2023/02/04 00:00:15;;;;;;;0.90;0.63;;;4.50;99.90;;;-141.84;77.24;19043.66;5050350;28;20236;-58
2023/02/04 00:02:45;;;;;;;1.23;0.73;;;4.40;99.90;;;-141.84;78.31;19057.88;5050365;28;20280;-58
2023/02/04 00:05:14;;;;;;;1.67;1.30;;;4.30;99.90;;;-141.84;76.93;19053.81;5049624;28;20233;-59
2023/02/04 00:07:42;;;;;;;1.57;1.00;;;4.30;99.90;;;-141.84;76.60;19053.81;5049611;28;20263;-58
2023/02/04 00:10:11;;;;;;;2.23;0.93;;;4.30;99.90;;;-141.84;77.31;19049.75;5049567;28;20232;-58
2023/02/04 00:12:39;;;;;;;1.30;0.80;;;4.30;99.90;;;-141.84;77.19;19009.09;5049679;28;20235;-59
2023/02/04 00:15:09;;;;;;;1.77;1.20;;;4.20;99.90;;;-141.84;76.94;19039.59;5049121;28;20234;-59
2023/02/04 00:17:38;;;;;;;2.60;1.20;;;4.20;99.90;;;-141.84;76.87;19045.69;5049539;28;20666;-57
2023/02/04 00:20:09;;;;;;;3.47;1.40;;;4.20;99.90;;;-141.84;76.81;19017.25;5049310;28;20311;-59
2023/02/04 00:22:37;;;;;;;1.47;1.37;;;4.20;99.90;;;-141.84;75.96;19063.97;5054728;28;20217;-58
2023/02/04 00:25:07;;;;;;;1.43;1.33;;;4.30;99.90;;;-141.84;76.70;19021.31;5069307;28;20216;-57
2023/02/04 00:27:35;;;;;;;2.63;1.50;;;4.20;99.90;;;-141.84;76.45;19055.84;5072044;28;20227;-59
2023/02/04 00:30:03;;;;;;;2.83;1.30;;;4.20;99.90;;;-141.84;75.63;19070.06;5069065;28;20204;-60
2023/02/04 00:32:33;;;;;;;3.13;1.53;;;4.30;99.90;;;-141.84;76.10;19023.34;5053416;28;20293;-57
2023/02/04 00:35:03;;;;;;;2.90;1.30;;;4.30;99.90;;;-141.84;75.60;19104.59;5052884;28;20232;-59
2023/02/04 00:37:33;;;;;;;1.77;1.20;;;4.30;99.90;;;-141.84;74.82;19078.19;5053040;28;20259;-59
2023/02/04 00:40:01;;;;;;;2.90;1.40;;;4.30;99.90;;;-141.84;74.56;19068.03;5052939;28;20228;-59
2023/02/04 00:42:29;;;;;;;3.27;1.33;;;4.30;99.90;;;-141.84;74.89;19057.88;5052606;28;20310;-57
2023/02/04 00:44:57;;;;;;;2.20;1.43;;;4.30;99.90;;;-141.84;74.06;19100.53;5052679;28;20613;-60
2023/02/04 00:47:25;;;;;;;3.63;1.67;;;4.30;99.90;;;-141.84;74.42;19049.75;5052998;28;20232;-60
2023/02/04 00:49:54;;;;;;;1.67;1.20;;;4.30;99.90;;;-141.84;73.71;19106.66;5052584;28;20224;-60
2023/02/04 00:52:22;;;;;;;2.93;1.30;;;4.30;99.90;;;-141.84;73.73;19082.25;5052654;28;20717;-60
2023/02/04 00:54:51;;;;;;;2.30;1.30;;;4.30;99.90;;;-141.84;73.91;19088.34;5052825;28;20233;-59
2023/02/04 00:57:19;;;;;;;1.97;1.47;;;4.30;99.90;;;-141.84;73.45;19082.25;5052444;28;20731;-60
2023/02/04 00:59:48;;;;;;;3.03;1.53;;;4.30;99.90;;;-141.84;72.38;19070.06;5053533;28;20212;-59
2023/02/04 01:02:16;;;;;;;1.77;1.20;;;4.30;99.90;;;-141.84;72.29;19082.25;5052566;28;20217;-60
2023/02/04 01:04:45;;;;;;;2.07;1.33;;;4.20;99.90;;;-141.84;71.69;19086.31;5032300;28;20716;-59
2023/02/04 01:07:13;;;;;;;2.40;1.20;;;4.20;99.90;;;-141.84;71.50;19074.13;5032336;28;20236;-60
2023/02/04 01:09:42;;;;;;;1.43;1.17;;;4.20;99.90;;;-141.84;71.71;19084.28;5032588;28;20220;-57
2023/02/04 01:12:11;;;;;;;3.17;1.33;;;4.20;99.90;;;-141.84;71.66;19076.16;5032522;28;20210;-57
2023/02/04 01:14:39;;;;;;;1.53;1.40;;;4.20;99.90;;;-141.84;71.80;19090.38;5032907;28;20241;-57
2023/02/04 01:17:07;;;;;;;2.17;1.40;;;4.20;99.90;;;-141.84;71.28;19090.38;5032140;28;20235;-59
2023/02/04 01:19:36;;;;;;;1.43;1.33;;;4.20;99.90;;;-141.84;71.71;19053.81;5032191;28;20229;-59
2023/02/04 01:22:04;;;;;;;2.23;1.43;;;4.10;99.90;;;-141.84;72.34;19059.91;5034107;28;20483;-59
2023/02/04 01:24:32;;;;;;;2.33;1.30;;;4.10;99.90;;;-141.84;72.27;19092.41;5072431;28;20232;-56
2023/02/04 01:27:00;;;;;;;1.40;1.30;;;4.10;99.90;;;-141.84;71.78;19068.03;5071941;28;20730;-57
2023/02/04 01:29:29;;;;;;;1.70;1.37;;;4.10;99.90;;;-141.84;71.26;19068.03;5073100;28;20301;-57
2023/02/04 01:31:58;;;;;;;3.17;1.70;;;4.10;99.90;;;-141.84;71.68;19045.69;5031975;28;20245;-59
2023/02/04 01:34:26;;;;;;;4.20;1.57;;;4.10;99.90;;;-141.84;72.06;19074.13;5032017;28;20221;-58
2023/02/04 01:36:54;;;;;;;2.27;1.90;;;3.90;99.90;;;-141.84;72.22;19045.69;5031559;28;20225;-59
2023/02/04 01:39:22;;;;;;;1.50;1.40;;;3.90;99.90;;;-141.84;72.06;19066.00;5032211;28;20604;-59
2023/02/04 01:41:50;;;;;;;2.93;1.40;;;3.90;99.90;;;-141.84;71.86;19090.38;5041048;28;20218;-58
2023/02/04 01:44:19;;;;;;;1.67;1.50;;;3.90;99.90;;;-141.84;71.62;19070.06;5051966;28;20216;-58
2023/02/04 01:46:48;;;;;;;3.07;1.50;;;3.90;99.90;;;-141.84;71.89;19047.72;5051156;28;20231;-59
2023/02/04 01:49:17;;;;;;;1.83;1.60;;;3.90;99.90;;;-141.84;71.81;19043.66;5051628;28;20233;-58
2023/02/04 01:51:46;;;;;;;2.50;1.80;;;3.90;99.90;;;-141.84;71.87;19090.38;5051312;28;20228;-59
2023/02/04 01:54:16;;;;;;;1.57;1.47;;;3.80;99.90;;;-141.84;72.87;19029.44;5051570;28;20883;-58
2023/02/04 01:56:47;;;;;;;1.83;1.60;;;3.70;99.90;;;-141.84;72.55;19051.78;5051859;28;20184;-59
2023/02/04 01:59:18;;;;;;;2.47;1.30;;;3.70;99.90;;;-141.84;72.43;19045.69;5051221;28;20228;-59
2023/02/04 02:01:49;;;;;;;1.93;1.40;;;3.70;99.90;;;-141.84;72.95;19051.78;5032877;28;20247;-59
2023/02/04 02:04:24;;;;;;;1.63;1.40;;;3.60;99.90;;;-141.84;72.98;19053.81;5031468;28;20228;-59
2023/02/04 02:06:57;;;;;;;1.90;1.50;;;3.60;99.90;;;-141.84;72.72;19033.50;5031726;28;20225;-58
2023/02/04 02:09:26;;;;;;;2.20;1.40;;;3.60;99.90;;;-141.84;72.22;19072.09;5031637;28;20234;-58
2023/02/04 02:11:55;;;;;;;1.87;1.67;;;3.60;99.90;;;-141.84;72.64;19080.22;5031795;28;20209;-57
2023/02/04 02:14:23;;;;;;;2.13;1.40;;;3.60;99.90;;;-141.84;72.95;19039.59;5031709;28;20205;-59
2023/02/04 02:16:52;;;;;;;1.83;1.40;;;3.60;99.90;;;-141.84;72.63;19053.81;5031218;28;20612;-57
2023/02/04 02:19:30;;;;;;;1.40;1.30;;;3.60;99.90;;;-141.84;72.59;19005.03;5048668;28;20809;-57
2023/02/04 02:22:07;;;;;;;1.73;1.20;;;3.60;99.90;;;-141.84;72.69;19019.28;5051238;28;20328;-57
2023/02/04 02:24:36;;;;;;;1.40;1.27;;;3.50;99.90;;;-141.84;73.03;19035.53;5070941;28;20234;-59
2023/02/04 02:27:09;;;;;;;2.17;1.60;;;3.50;99.90;;;-141.84;73.38;19027.41;5071017;28;20224;-58
2023/02/04 02:29:42;;;;;;;2.10;1.50;;;3.50;99.90;;;-141.84;73.20;19057.88;5070613;28;20188;-59
2023/02/04 02:32:14;;;;;;;1.93;1.40;;;3.50;99.90;;;-141.84;72.48;19057.88;5050619;28;20234;-59
2023/02/04 02:34:44;;;;;;;3.67;1.40;;;3.50;99.90;;;-141.84;72.82;19061.94;5050589;28;20252;-60
2023/02/04 02:37:13;;;;;;;1.53;1.27;;;3.50;99.90;;;-141.84;72.43;19041.63;5050647;28;20232;-56
2023/02/04 02:39:45;;;;;;;1.83;1.40;;;3.60;99.90;;;-141.84;73.04;19021.31;5030792;28;20743;-59
2023/02/04 02:42:17;;;;;;;1.30;1.20;;;3.60;99.90;;;-141.84;72.22;19025.38;5042329;28;20753;-59
2023/02/04 02:44:46;;;;;;;2.00;1.17;;;3.60;99.90;;;-141.84;71.97;19066.00;5051414;28;20202;-57
2023/02/04 02:47:17;;;;;;;1.87;1.37;;;3.60;99.90;;;-141.84;71.55;19108.69;5050100;28;20601;-57
2023/02/04 02:49:48;;;;;;;1.90;1.50;;;3.70;99.90;;;-141.84;71.69;19037.56;5049650;28;20732;-57
2023/02/04 02:52:17;;;;;;;3.03;1.40;;;3.70;99.90;;;-141.84;72.18;19080.22;5050644;28;20227;-57
2023/02/04 02:54:47;;;;;;;2.27;1.73;;;3.70;99.90;;;-141.84;71.78;19096.47;5050397;28;20679;-59
2023/02/04 02:57:19;;;;;;;2.10;1.50;;;3.70;99.90;;;-141.84;71.55;19084.28;5042776;28;20283;-58
2023/02/04 02:59:47;;;;;;;1.67;1.37;;;3.80;99.90;;;-141.84;72.52;19049.75;5040466;28;20198;-56
2023/02/04 03:02:21;;;;;;;2.60;1.50;;;3.70;99.90;;;-141.84;72.76;19074.13;5030652;28;20248;-57
2023/02/04 03:04:54;;;;;;;2.33;1.37;;;3.70;99.90;;;-141.84;72.99;19037.56;5030145;28;20268;-58
2023/02/04 03:07:24;;;;;;;4.33;1.83;;;3.70;99.90;;;-141.84;72.55;19072.09;5030458;28;20230;-59
2023/02/04 03:09:53;;;;;;;3.00;1.33;;;3.70;99.90;;;-141.84;71.92;19057.88;5030419;28;20233;-58
2023/02/04 03:12:22;;;;;;;2.50;1.43;;;3.70;99.90;;;-141.84;71.83;19070.06;5030703;28;20241;-58
2023/02/04 03:14:50;;;;;;;1.60;1.20;;;3.70;99.90;;;-141.84;71.47;19039.59;5030671;28;20240;-58
2023/02/04 03:17:18;;;;;;;1.90;1.30;;;3.70;99.90;;;-141.84;71.14;19082.25;5031428;28;20572;-59
2023/02/04 03:19:47;;;;;;;1.83;1.50;;;3.70;99.90;;;-141.84;71.00;19045.69;5050036;28;20228;-57
2023/02/04 03:22:15;;;;;;;1.83;1.50;;;3.70;99.90;;;-141.84;71.37;19059.91;5052690;28;20233;-57
2023/02/04 03:24:44;;;;;;;1.87;1.60;;;3.70;99.90;;;-141.84;71.77;19078.19;5070061;28;20223;-59
2023/02/04 03:27:15;;;;;;;2.60;1.53;;;3.70;99.90;;;-141.84;72.25;19045.69;5070312;28;20235;-56
2023/02/04 03:29:45;;;;;;;1.47;1.37;;;3.60;99.90;;;-141.84;73.06;19027.41;5069202;28;20191;-58
2023/02/04 03:32:13;;;;;;;2.40;1.60;;;3.50;99.90;;;-141.84;73.52;19039.59;5050015;28;20225;-57
2023/02/04 03:34:41;;;;;;;1.30;1.20;;;3.40;99.90;;;-141.84;73.39;19029.44;5039787;28;20580;-56
2023/02/04 03:37:09;;;;;;;1.77;1.47;;;3.40;99.90;;;-141.84;73.83;19055.84;5031024;28;20236;-58
2023/02/04 03:39:39;;;;;;;1.57;1.40;;;3.40;99.90;;;-141.84;73.63;19021.31;5049837;28;20747;-57
2023/02/04 03:42:07;;;;;;;1.97;1.50;;;3.40;99.90;;;-141.84;73.29;19043.66;5050076;28;20203;-55
2023/02/04 03:44:37;;;;;;;2.20;1.60;;;3.40;99.90;;;-141.84;73.32;19000.97;5050287;28;20715;-60
2023/02/04 03:47:05;;;;;;;2.20;1.70;;;3.40;99.90;;;-141.84;73.52;19049.75;5049818;28;20599;-57
2023/02/04 03:49:34;;;;;;;1.57;1.47;;;3.40;99.90;;;-141.84;73.50;19000.97;5049665;28;20247;-57
2023/02/04 03:52:04;;;;;;;1.70;1.50;;;3.40;99.90;;;-141.84;73.36;19059.91;5041651;28;20310;-58
2023/02/04 03:54:32;;;;;;;1.87;1.50;;;3.40;99.90;;;-141.84;72.50;19055.84;5029917;28;20247;-58
2023/02/04 03:57:00;;;;;;;2.67;1.40;;;3.40;99.90;;;-141.84;73.09;19053.81;5030303;28;20224;-58
2023/02/04 03:59:29;;;;;;;2.27;1.30;;;3.40;99.90;;;-141.84;72.20;19059.91;5030279;28;20196;-60
2023/02/04 04:01:58;;;;;;;1.73;1.17;;;3.50;99.90;;;-141.84;71.76;19047.72;5033323;28;20266;-56
2023/02/04 04:04:26;;;;;;;1.70;1.23;;;3.50;99.90;;;-141.84;71.69;19066.00;5033503;28;20266;-57
2023/02/04 04:06:55;;;;;;;1.90;1.60;;;3.60;99.90;;;-141.84;72.05;19061.94;5031246;28;20723;-56
2023/02/04 04:09:23;;;;;;;1.40;1.20;;;3.50;99.90;;;-141.84;71.66;19057.88;5033744;28;20227;-58
2023/02/04 04:11:51;;;;;;;1.37;1.20;;;3.60;99.90;;;-141.84;72.31;19051.78;5034028;28;20444;-57
2023/02/04 04:14:19;;;;;;;2.00;1.40;;;3.60;99.90;;;-141.84;72.64;19021.31;5034005;28;20226;-57
2023/02/04 04:16:47;;;;;;;1.60;1.30;;;3.60;99.90;;;-141.84;70.96;19049.75;5033292;28;20225;-59
2023/02/04 04:19:17;;;;;;;2.13;1.33;;;3.60;99.90;;;-141.84;70.76;19045.69;5033334;28;20232;-59
2023/02/04 04:21:45;;;;;;;1.33;0.97;;;3.60;99.90;;;-141.84;70.74;19041.63;5033622;28;20629;-58
2023/02/04 04:24:13;;;;;;;1.97;1.50;;;3.60;99.90;;;-141.84;70.78;19057.88;5070970;28;20725;-59
2023/02/04 04:26:41;;;;;;;2.03;1.13;;;3.60;99.90;;;-141.84;71.27;19068.03;5074009;28;20215;-59
2023/02/04 04:29:10;;;;;;;1.60;1.40;;;3.50;99.90;;;-141.84;72.30;18988.78;5073199;28;20727;-58
2023/02/04 04:31:38;;;;;;;1.70;1.53;;;3.40;99.90;;;-141.84;73.01;19009.09;5039848;28;20233;-58
2023/02/04 04:34:06;;;;;;;1.37;1.10;;;3.30;99.90;;;-141.84;72.59;19013.16;5039393;28;20229;-57
2023/02/04 04:36:36;;;;;;;1.50;1.03;;;3.20;99.90;;;-141.84;73.01;19025.38;5053127;28;20705;-58
2023/02/04 04:39:04;;;;;;;1.57;1.20;;;3.10;99.90;;;-141.84;72.68;19021.31;5053357;28;20198;-57
2023/02/04 04:41:32;;;;;;;1.53;1.20;;;3.10;99.90;;;-141.84;73.37;19000.97;5053543;28;20205;-56
2023/02/04 04:44:00;;;;;;;1.50;1.10;;;3.00;99.90;;;-141.84;73.85;19007.06;5052891;28;20406;-56
2023/02/04 04:46:29;;;;;;;1.57;1.30;;;2.90;99.90;;;-141.84;74.01;18986.75;5052809;28;20232;-55
2023/02/04 04:48:57;;;;;;;2.60;1.30;;;2.80;99.90;;;-141.84;73.83;19011.13;5038741;28;20226;-59
2023/02/04 04:51:25;;;;;;;2.73;1.20;;;2.80;99.90;;;-141.84;73.90;18958.31;5032803;28;20284;-59
2023/02/04 04:53:55;;;;;;;1.80;1.13;;;2.80;99.90;;;-141.84;74.87;18970.50;5032967;28;20221;-56
2023/02/04 04:56:23;;;;;;;1.67;1.30;;;2.60;99.90;;;-141.84;75.43;18952.22;5033341;28;20206;-57
2023/02/04 04:58:51;;;;;;;2.10;1.50;;;2.60;99.90;;;-141.84;76.42;18958.31;5033047;28;20226;-57
2023/02/04 05:01:21;;;;;;;1.60;1.30;;;2.40;99.90;;;-141.84;77.05;18950.19;5032785;28;20771;-58
2023/02/04 05:03:49;;;;;;;2.03;1.30;;;2.40;99.90;;;-141.84;75.85;18988.78;5014205;28;20230;-56
2023/02/04 05:06:24;;;;;;;2.27;1.23;;;2.50;99.90;;;-141.84;76.14;18978.63;5032579;28;20857;-58
2023/02/04 05:08:54;;;;;;;2.53;1.50;;;2.50;99.90;;;-141.84;75.96;18960.34;5032870;28;20214;-57
2023/02/04 05:11:22;;;;;;;1.40;1.30;;;2.50;99.90;;;-141.84;75.29;18952.22;5033082;28;20206;-57
2023/02/04 05:13:50;;;;;;;2.13;1.50;;;2.60;99.90;;;-141.84;75.35;18964.41;5032052;28;20233;-57
2023/02/04 05:16:18;;;;;;;3.40;1.40;;;2.70;99.90;;;-141.84;74.89;18994.88;5032480;28;20227;-57
2023/02/04 05:18:46;;;;;;;1.73;1.20;;;2.70;99.90;;;-141.84;74.94;18990.81;5032541;28;20279;-56
2023/02/04 05:21:14;;;;;;;3.27;1.07;;;2.70;99.90;;;-141.84;74.57;18966.44;5032412;28;20240;-57
2023/02/04 05:23:42;;;;;;;2.53;1.37;;;2.80;99.90;;;-141.84;73.60;18992.84;5062221;28;20202;-58
2023/02/04 05:26:12;;;;;;;1.67;1.00;;;2.90;99.90;;;-141.84;72.59;18996.91;5070405;28;20224;-58
2023/02/04 05:28:56;;;;;;;1.23;1.10;;;3.00;99.90;;;-141.84;72.08;19017.25;5052191;28;20226;-57
2023/02/04 05:31:24;;;;;;;2.67;1.20;;;3.10;99.90;;;-141.84;72.96;19017.25;5033055;28;20246;-57
2023/02/04 05:33:53;;;;;;;1.20;1.10;;;3.00;99.90;;;-141.84;71.70;19009.09;5052169;28;20217;-57
2023/02/04 05:36:21;;;;;;;1.43;1.10;;;3.10;99.90;;;-141.84;72.15;18996.91;5051868;28;20745;-60
2023/02/04 05:38:50;;;;;;;2.03;1.10;;;3.10;99.90;;;-141.84;73.38;18988.78;5052740;28;20395;-58
2023/02/04 05:41:19;;;;;;;1.63;1.17;;;3.00;99.90;;;-141.84;73.64;18986.75;5052026;28;20227;-61
2023/02/04 05:43:47;;;;;;;1.57;1.13;;;3.00;99.90;;;-141.84;72.83;19017.25;5051882;28;20233;-58
2023/02/04 05:46:15;;;;;;;1.03;0.93;;;3.00;99.90;;;-141.84;72.11;19023.34;5051443;28;20782;-57
2023/02/04 05:48:43;;;;;;;1.03;0.93;;;3.00;99.90;;;-141.84;71.66;19045.69;5051474;28;20229;-57
2023/02/04 05:51:11;;;;;;;1.27;1.00;;;3.10;99.90;;;-141.84;71.12;19033.50;5051854;28;20223;-57
2023/02/04 05:53:40;;;;;;;2.33;1.10;;;3.10;99.90;;;-141.84;70.95;19021.31;5052203;28;20468;-59
2023/02/04 05:56:08;;;;;;;1.40;1.00;;;3.10;99.90;;;-141.84;71.34;19013.16;5051593;28;20231;-59
2023/02/04 05:58:37;;;;;;;1.20;1.00;;;3.10;99.90;;;-141.84;70.21;19041.63;5050979;28;20227;-58
2023/02/04 06:01:07;;;;;;;1.47;1.07;;;3.10;99.90;;;-141.84;70.83;19011.13;5031593;28;20244;-56
2023/02/04 06:03:35;;;;;;;1.40;0.90;;;3.00;99.90;;;-141.84;71.63;19005.03;5031637;28;20235;-56
2023/02/04 06:06:03;;;;;;;1.37;1.17;;;2.90;99.90;;;-141.84;71.93;18968.47;5031266;28;20679;-58
2023/02/04 06:08:31;;;;;;;1.20;1.10;;;2.90;99.90;;;-141.84;70.61;19021.31;5032201;28;20288;-58
2023/02/04 06:11:00;;;;;;;1.07;0.90;;;2.90;99.90;;;-141.84;70.89;19005.03;5031458;28;20239;-58
2023/02/04 06:13:28;;;;;;;1.30;1.00;;;2.90;99.90;;;-141.84;71.43;18988.78;5031487;28;20241;-57
2023/02/04 06:15:57;;;;;;;1.27;0.90;;;2.80;99.90;;;-141.84;71.97;18986.75;5031573;28;20235;-55
2023/02/04 06:18:25;;;;;;;1.07;0.90;;;2.70;99.90;;;-141.84;72.83;19009.09;5041667;28;20251;-56
2023/02/04 06:20:53;;;;;;;1.53;1.10;;;2.60;99.90;;;-141.84;73.30;18968.47;5051357;28;20208;-57
2023/02/04 06:23:21;;;;;;;2.93;1.00;;;2.50;99.90;;;-141.84;74.27;18960.34;5053248;28;20197;-58
2023/02/04 06:25:50;;;;;;;1.30;1.10;;;2.40;99.90;;;-141.84;75.29;18931.91;5050577;28;20238;-57
2023/02/04 06:28:18;;;;;;;1.27;0.90;;;2.20;99.90;;;-141.84;75.40;18948.16;5051195;28;20225;-57
2023/02/04 06:30:48;;;;;;;1.30;1.10;;;2.20;99.90;;;-141.84;75.89;18927.84;5041033;28;20775;-56
2023/02/04 06:33:17;;;;;;;2.23;1.30;;;2.10;99.90;;;-141.84;76.29;18960.34;5030933;28;20249;-57
2023/02/04 06:35:46;;;;;;;1.67;1.10;;;2.10;99.90;;;-141.84;76.53;18923.78;4996517;28;20599;-57
2023/02/04 06:38:14;;;;;;;1.80;1.07;;;2.00;99.90;;;-141.84;76.95;18929.88;5031144;28;20226;-59
2023/02/04 06:40:42;;;;;;;1.53;1.10;;;2.00;99.90;;;-141.84;77.12;18933.94;5030707;28;20702;-59
2023/02/04 06:43:10;;;;;;;1.33;1.23;;;1.90;99.90;;;-141.84;76.86;18917.66;5050246;28;20229;-57
2023/02/04 06:45:39;;;;;;;2.23;1.33;;;2.00;99.90;;;-141.84;77.03;18938.00;5050956;28;20223;-56
2023/02/04 06:48:07;;;;;;;3.00;1.03;;;2.00;99.90;;;-141.84;76.91;18948.16;5050032;28;20213;-59
2023/02/04 06:50:36;;;;;;;2.80;1.50;;;2.00;99.90;;;-141.84;77.23;18929.88;5050860;28;20229;-55
2023/02/04 06:53:04;;;;;;;2.50;1.37;;;2.00;99.90;;;-141.84;77.61;18891.25;5050313;28;20279;-56
2023/02/04 06:55:33;;;;;;;2.20;1.60;;;1.90;99.90;;;-141.84;78.23;18899.38;5050406;28;20727;-58
2023/02/04 06:58:01;;;;;;;3.07;1.50;;;1.90;99.90;;;-141.84;78.73;18913.59;5050322;28;20221;-58
2023/02/04 07:00:30;;;;;;;2.67;1.73;;;1.90;99.90;;;-141.84;78.24;18931.91;5033966;28;20237;-58
2023/02/04 07:02:58;;;;;;;2.90;1.40;;;1.90;99.90;;;-141.84;78.05;18919.69;5030302;28;20206;-57
2023/02/04 07:05:27;;;;;;;3.27;1.50;;;2.00;99.90;;;-141.84;78.80;18907.50;5030619;28;20750;-56
2023/02/04 07:07:57;;;;;;;2.67;1.97;;;1.90;99.90;;;-141.84;78.94;18909.53;5030425;28;20252;-57
2023/02/04 07:10:25;;;;;;;1.50;1.40;;;1.90;99.90;;;-141.84;79.02;18919.69;5030318;28;20244;-56
2023/02/04 07:12:53;;;;;;;3.17;1.60;;;1.90;99.90;;;-141.84;79.25;18899.38;5030641;28;20217;-56
2023/02/04 07:15:21;;;;;;;2.00;1.30;;;1.90;99.90;;;-141.84;78.99;18899.38;5030425;28;20229;-57
2023/02/04 07:17:50;;;;;;;5.50;2.50;;;1.90;99.90;;;-141.84;78.88;18927.84;5036197;28;20229;-57
2023/02/04 07:20:18;;;;;;;2.23;1.60;;;1.90;99.90;;;-141.84;78.92;18901.41;5050533;28;20585;-57
2023/02/04 07:22:46;;;;;;;2.50;1.83;;;1.90;99.90;;;-141.84;77.72;18907.50;5045074;28;20226;-57
2023/02/04 07:25:16;;;;;;;2.60;1.70;;;2.00;99.90;;;-141.84;77.91;18887.19;5030603;28;20236;-58
2023/02/04 07:27:45;;;;;;;2.00;1.87;;;2.00;99.90;;;-141.84;78.60;18921.75;5030395;28;20284;-57
2023/02/04 07:30:14;;;;;;;2.00;1.47;;;2.00;99.90;;;-141.84;77.56;18933.94;5030858;28;20237;-57
2023/02/04 07:32:42;;;;;;;2.73;2.13;;;2.10;99.90;;;-141.84;77.39;18913.59;5030708;28;20225;-57
2023/02/04 07:35:11;;;;;;;3.10;2.50;;;2.20;99.90;;;-141.84;77.28;18915.63;5030005;28;20598;-59
2023/02/04 07:37:39;;;;;;;3.17;1.80;;;2.20;99.90;;;-141.84;77.23;18927.84;5043363;28;20218;-57
2023/02/04 07:40:09;;;;;;;2.23;1.50;;;2.20;99.90;;;-141.84;77.36;18905.47;5050105;28;20227;-55
2023/02/04 07:42:39;;;;;;;4.23;1.70;;;2.10;99.90;;;-141.84;77.11;18940.03;5049949;28;20228;-57
2023/02/04 07:45:08;;;;;;;4.13;1.80;;;2.20;99.90;;;-141.84;76.65;18962.38;5050324;28;20218;-59
2023/02/04 07:47:36;;;;;;;1.90;1.70;;;2.10;99.90;;;-141.84;77.11;18915.63;5046754;28;20686;-58
2023/02/04 07:50:06;;;;;;;3.07;1.70;;;2.10;99.90;;;-141.84;77.25;18940.03;5030153;28;20381;-58
2023/02/04 07:52:34;;;;;;;2.13;1.80;;;2.10;99.90;;;-141.84;77.04;18925.81;5030248;28;20241;-59
2023/02/04 07:55:02;;;;;;;2.27;2.07;;;2.20;99.90;;;-141.84;74.98;18952.22;5030017;28;20217;-57
2023/02/04 07:57:30;;;;;;;2.43;1.37;;;2.40;99.90;;;-141.84;74.98;18980.66;5030095;28;20233;-59
2023/02/04 08:00:00;;;;;;;3.43;1.60;;;2.50;99.90;;;-141.84;74.02;19000.97;5029985;28;20218;-55
2023/02/04 08:02:28;;;;;;;3.60;1.87;;;2.60;99.90;;;-141.84;74.41;18966.44;5030554;28;20210;-57
2023/02/04 08:04:56;;;;;;;2.60;1.67;;;2.80;99.90;;;-141.84;73.33;19009.09;5029762;28;20473;-57
2023/02/04 08:07:24;;;;;;;2.37;1.40;;;2.90;99.90;;;-141.84;71.93;19037.56;5030330;28;20227;-58
2023/02/04 08:09:52;;;;;;;4.17;1.60;;;3.10;99.90;;;-141.84;71.26;19015.19;5029783;28;20227;-58
2023/02/04 08:12:21;;;;;;;1.80;1.37;;;3.20;99.90;;;-141.84;71.00;19055.84;5030188;28;20241;-59
2023/02/04 08:14:49;;;;;;;4.30;1.57;;;3.30;99.90;;;-141.84;70.78;19005.03;5029709;28;20621;-58
2023/02/04 08:17:19;;;;;;;2.47;1.70;;;3.30;99.90;;;-141.84;71.13;19033.50;5030543;28;20580;-59
2023/02/04 08:19:47;;;;;;;2.30;1.27;;;3.20;99.90;;;-141.84;71.19;19000.97;5048768;28;20283;-58
2023/02/04 08:22:15;;;;;;;3.53;1.63;;;3.20;99.90;;;-141.84;71.25;19045.69;5051844;28;20304;-59
2023/02/04 08:24:43;;;;;;;2.27;1.43;;;3.20;99.90;;;-141.84;70.90;19035.53;5069544;28;20232;-56
2023/02/04 08:27:12;;;;;;;2.47;1.60;;;3.20;99.90;;;-141.84;70.29;19021.31;5069888;28;20221;-57
2023/02/04 08:29:40;;;;;;;1.83;1.40;;;3.30;99.90;;;-141.84;70.04;19053.81;5069020;28;20225;-59
2023/02/04 08:32:09;;;;;;;1.93;1.50;;;3.40;99.90;;;-141.84;68.63;19063.97;5050053;28;20229;-60
2023/02/04 08:34:39;;;;;;;1.73;1.50;;;3.60;99.90;;;-141.84;68.24;19053.81;5041353;28;20252;-58
2023/02/04 08:37:07;;;;;;;3.27;2.03;;;3.70;99.90;;;-141.84;68.45;19082.25;5049547;28;20223;-58
2023/02/04 08:39:35;;;;;;;3.13;1.47;;;3.80;99.90;;;-141.84;68.80;19023.34;5049698;28;20221;-58
2023/02/04 08:42:03;;;;;;;1.80;1.20;;;3.70;99.90;;;-141.84;68.98;19063.97;5049385;28;20204;-58
2023/02/04 08:44:32;;;;;;;4.03;1.37;;;3.70;99.90;;;-141.84;68.70;19068.03;5050027;28;20216;-59
2023/02/04 08:47:00;;;;;;;3.40;1.70;;;3.80;99.90;;;-141.84;68.33;19053.81;5049613;28;20263;-57
2023/02/04 08:49:28;;;;;;;3.47;1.57;;;3.80;99.90;;;-141.84;68.80;19094.44;5052492;28;20234;-57
2023/02/04 08:51:57;;;;;;;2.27;1.70;;;3.70;99.90;;;-141.84;67.76;19106.66;5053023;28;20228;-57
2023/02/04 08:54:26;;;;;;;5.00;1.93;;;3.90;99.90;;;-141.84;67.59;19090.38;5053014;28;20233;-55
2023/02/04 08:56:54;;;;;;;2.33;1.40;;;3.90;99.90;;;-141.84;68.20;19059.91;5052904;28;20210;-58
2023/02/04 08:59:23;;;;;;;2.67;1.60;;;3.80;99.90;;;-141.84;67.63;19078.19;5053365;28;20208;-56
2023/02/04 09:01:51;;;;;;;2.63;1.43;;;3.80;99.90;;;-141.84;68.12;19066.00;5052527;28;20660;-57
2023/02/04 09:04:21;;;;;;;1.60;1.50;;;3.80;99.90;;;-141.84;68.19;19070.06;5052655;28;20675;-58
2023/02/04 09:06:50;;;;;;;1.80;1.43;;;3.80;99.90;;;-141.84;68.49;19086.31;5052051;28;20224;-56
2023/02/04 09:09:20;;;;;;;2.37;1.50;;;3.70;99.90;;;-141.84;68.81;19096.47;5052603;28;20254;-56
2023/02/04 09:11:50;;;;;;;4.40;1.87;;;3.70;99.90;;;-141.84;68.73;19063.97;5053000;28;20234;-57
2023/02/04 09:14:18;;;;;;;1.80;1.30;;;3.60;99.90;;;-141.84;68.96;19076.16;5052658;28;20234;-59
2023/02/04 09:16:47;;;;;;;2.97;1.87;;;3.70;99.90;;;-141.84;68.34;19106.66;5051874;28;20243;-59
2023/02/04 09:19:18;;;;;;;2.93;1.60;;;3.80;99.90;;;-141.84;68.39;19114.78;5039244;28;20229;-58
2023/02/04 09:21:46;;;;;;;2.80;1.53;;;3.80;99.90;;;-141.84;68.53;19084.28;5032436;28;20598;-59
2023/02/04 09:24:14;;;;;;;2.87;1.60;;;3.80;99.90;;;-141.84;68.94;19098.50;5070079;28;20224;-56
2023/02/04 09:26:44;;;;;;;4.07;1.90;;;3.80;99.90;;;-141.84;68.75;19082.25;5072666;28;20203;-58
2023/02/04 09:29:12;;;;;;;3.47;1.60;;;3.80;99.90;;;-141.84;68.27;19135.09;5066532;28;20236;-60
2023/02/04 09:31:40;;;;;;;2.20;1.70;;;3.90;99.90;;;-141.84;67.99;19114.78;5051460;28;20290;-58
2023/02/04 09:34:08;;;;;;;2.73;1.90;;;3.90;99.90;;;-141.84;67.78;19122.91;5051958;28;20220;-58
2023/02/04 09:36:38;;;;;;;3.80;2.07;;;4.00;99.90;;;-141.84;68.38;19110.72;5051943;28;20603;-58
2023/02/04 09:39:08;;;;;;;3.33;1.93;;;4.00;99.90;;;-141.84;69.39;19088.34;5052176;28;20205;-57
2023/02/04 09:41:39;;;;;;;3.00;2.00;;;4.00;99.90;;;-141.84;68.55;19100.53;5051740;28;20585;-57
2023/02/04 09:44:18;;;;;;;3.27;2.00;;;4.00;99.90;;;-141.84;68.66;19082.25;5051855;28;20235;-58
2023/02/04 09:46:50;;;;;;;3.10;1.70;;;4.00;99.90;;;-141.84;69.13;19110.72;5051525;28;20228;-59
2023/02/04 09:49:19;;;;;;;2.93;2.13;;;3.90;99.90;;;-141.84;68.94;19086.31;5034390;28;20549;-56
2023/02/04 09:51:49;;;;;;;3.50;2.10;;;3.90;99.90;;;-141.84;68.45;19092.41;5037746;28;20232;-57
2023/02/04 09:54:20;;;;;;;4.10;2.20;;;4.00;99.90;;;-141.84;68.48;19122.91;5052332;28;20227;-60
2023/02/04 09:56:49;;;;;;;3.60;2.17;;;4.10;99.90;;;-141.84;67.38;19145.25;5052390;28;20598;-58
2023/02/04 09:59:22;;;;;;;3.80;2.00;;;4.20;99.90;;;-141.84;67.92;19112.75;5041102;28;20245;-58
2023/02/04 10:01:59;;;;;;;3.33;1.53;;;4.30;99.90;;;-141.84;67.78;19118.84;5031456;28;20279;-56
2023/02/04 10:04:28;;;;;;;2.73;1.73;;;4.30;99.90;;;-141.84;67.69;19133.06;5031536;28;20242;-59
2023/02/04 10:06:58;;;;;;;2.90;1.53;;;4.30;99.90;;;-141.84;66.88;19155.41;5031437;28;20229;-59
2023/02/04 10:09:26;;;;;;;3.70;1.63;;;4.40;99.90;;;-141.84;66.38;19120.88;5031707;28;20237;-57
2023/02/04 10:11:55;;;;;;;2.77;1.53;;;4.50;99.90;;;-141.84;66.14;19139.16;5040641;28;20600;-58
2023/02/04 10:14:24;;;;;;;2.13;1.50;;;4.40;99.90;;;-141.84;66.02;19143.22;5044111;28;20641;-58
2023/02/04 10:16:56;;;;;;;2.63;1.50;;;4.50;99.90;;;-141.84;66.02;19129.00;5036559;28;20225;-59
2023/02/04 10:19:30;;;;;;;2.23;1.30;;;4.50;99.90;;;-141.84;66.21;19171.66;5043226;28;20217;-57